Time;durP1;ratioP1;P1;durP2;ratioP2;P2;SDS_P1;SDS_P2;PMS_P1;PMS_P2;Temp;Humidity;BMP_temperature;BMP_pressure;BME280_temperature;BME280_humidity;BME280_pressure;Samples;Min_cycle;Max_cycle;Signal;HPM_P1;HPM_P2
2021/03/29 00:01:19;;;;;;;4.18;2.30;;;;;;;8.20;40.56;95215.34;5090550;28;20391;-73
2021/03/29 00:03:45;;;;;;;8.25;2.63;;;;;;;8.26;40.38;95220.63;5086011;28;20036;-70
2021/03/29 00:06:11;;;;;;;6.93;2.20;;;;;;;8.08;40.13;95213.97;5089235;28;20031;-71
2021/03/29 00:08:38;;;;;;;6.80;3.15;;;;;;;8.12;40.46;95215.03;5088862;28;20069;-70
2021/03/29 00:11:05;;;;;;;5.18;2.40;;;;;;;8.15;39.90;95219.84;5088766;28;20028;-69
2021/03/29 00:13:31;;;;;;;11.32;3.30;;;;;;;8.04;40.44;95209.19;5088697;28;20043;-70
2021/03/29 00:15:58;;;;;;;6.97;2.83;;;;;;;8.04;40.21;95214.50;5088658;28;20027;-69
2021/03/29 00:18:24;;;;;;;7.32;2.70;;;;;;;8.02;40.14;95216.63;5088911;28;20036;-70
2021/03/29 00:20:57;;;;;;;8.48;2.80;;;;;;;7.95;40.47;95209.97;5088519;28;20081;-70
2021/03/29 00:23:23;;;;;;;4.55;2.35;;;;;;;7.96;40.49;95215.03;5088536;28;20115;-69
2021/03/29 00:25:50;;;;;;;7.47;2.42;;;;;;;7.85;40.82;95221.38;5088414;28;20038;-69
2021/03/29 00:28:15;;;;;;;5.28;2.25;;;;;;;7.87;40.71;95208.63;5088786;28;20475;-69
2021/03/29 00:30:46;;;;;;;7.15;2.45;;;;;;;7.88;40.84;95207.59;5088290;28;20028;-70
2021/03/29 00:33:13;;;;;;;6.40;2.65;;;;;;;7.79;40.88;95196.66;5088518;28;20051;-69
2021/03/29 00:35:41;;;;;;;6.43;2.75;;;;;;;7.75;41.04;95205.41;5088399;28;20040;-69
2021/03/29 00:38:10;;;;;;;6.00;2.92;;;;;;;7.65;41.14;95198.22;5090006;28;20491;-69
2021/03/29 00:40:39;;;;;;;6.35;2.67;;;;;;;7.57;41.51;95199.53;5088418;28;20028;-69
2021/03/29 00:43:15;;;;;;;8.27;2.65;;;;;;;7.56;41.59;95197.16;5088578;28;20085;-70
2021/03/29 00:45:42;;;;;;;5.68;2.92;;;;;;;7.54;41.67;95193.94;5089664;28;20028;-69
2021/03/29 00:48:09;;;;;;;5.10;2.40;;;;;;;7.50;41.85;95191.00;5088518;28;20051;-70
2021/03/29 00:50:45;;;;;;;7.95;2.30;;;;;;;7.56;42.00;95195.28;5088554;28;20031;-70
2021/03/29 00:53:12;;;;;;;6.78;2.60;;;;;;;7.53;42.10;95200.31;5088386;28;20036;-70
2021/03/29 00:55:40;;;;;;;10.98;2.97;;;;;;;7.51;42.10;95207.72;5088342;28;20077;-70
2021/03/29 00:58:06;;;;;;;6.70;2.88;;;;;;;7.47;42.09;95209.31;5088227;28;20032;-69
2021/03/29 01:00:43;;;;;;;6.70;3.10;;;;;;;7.44;42.06;95205.31;5088305;28;20035;-70
2021/03/29 01:03:19;;;;;;;7.63;2.58;;;;;;;7.46;42.23;95200.56;5089521;28;20043;-71
2021/03/29 01:05:55;;;;;;;6.07;2.83;;;;;;;7.39;42.37;95195.50;5089536;28;20115;-70
2021/03/29 01:08:22;;;;;;;10.50;3.15;;;;;;;7.36;42.52;95190.69;5089721;28;20050;-70
2021/03/29 01:10:47;;;;;;;7.30;3.28;;;;;;;7.34;42.49;95198.13;5089273;28;20108;-70
2021/03/29 01:13:16;;;;;;;5.22;2.92;;;;;;;7.38;42.34;95203.72;5088189;28;20024;-69
2021/03/29 01:15:42;;;;;;;5.70;2.63;;;;;;;7.46;42.30;95186.50;5093712;28;20438;-70
2021/03/29 01:18:11;;;;;;;8.27;2.63;;;;;;;7.45;42.01;95201.63;5092000;28;20395;-69
2021/03/29 01:20:55;;;;;;;6.65;2.70;;;;;;;7.53;42.12;95205.59;5093445;28;20063;-70
2021/03/29 01:23:21;;;;;;;5.82;2.70;;;;;;;7.58;41.98;95208.28;5092242;28;20042;-69
2021/03/29 01:25:51;;;;;;;6.07;2.90;;;;;;;7.57;41.88;95196.88;5092044;28;20028;-70
2021/03/29 01:28:21;;;;;;;5.88;2.67;;;;;;;7.57;41.59;95204.84;5092058;28;20148;-69
2021/03/29 01:30:48;;;;;;;5.25;2.25;;;;;;;7.59;41.93;95204.56;5091996;28;20032;-70
2021/03/29 01:33:15;;;;;;;6.07;2.50;;;;;;;7.63;41.66;95210.94;5093056;28;20055;-69
2021/03/29 01:35:45;;;;;;;8.82;2.67;;;;;;;7.67;41.16;95201.41;5093379;28;20032;-69
2021/03/29 01:38:13;;;;;;;5.80;2.28;;;;;;;7.62;41.32;95204.84;5091891;28;20072;-69
2021/03/29 01:40:40;;;;;;;5.38;2.72;;;;;;;7.72;40.92;95190.81;5089533;28;20036;-70
2021/03/29 01:43:07;;;;;;;7.22;2.67;;;;;;;7.78;41.09;95200.38;5093132;28;20478;-70
2021/03/29 01:45:33;;;;;;;8.23;2.90;;;;;;;7.75;41.27;95195.59;5091926;28;20020;-70
2021/03/29 01:48:00;;;;;;;4.72;2.40;;;;;;;7.72;41.24;95201.44;5091683;28;20440;-69
2021/03/29 01:50:29;;;;;;;6.85;3.50;;;;;;;7.57;40.63;95193.41;5091644;28;20016;-69
2021/03/29 01:52:56;;;;;;;5.63;2.83;;;;;;;7.58;41.06;95197.69;5093232;28;20079;-69
2021/03/29 01:55:23;;;;;;;5.70;2.53;;;;;;;7.56;41.03;95197.16;5091436;28;20498;-69
2021/03/29 01:57:49;;;;;;;9.35;3.17;;;;;;;7.59;40.60;95196.59;5091464;28;20030;-70
2021/03/29 02:00:28;;;;;;;10.98;3.00;;;;;;;7.61;41.04;95189.19;5092972;28;20024;-70
2021/03/29 02:02:55;;;;;;;6.95;2.50;;;;;;;7.66;41.28;95185.78;5091426;28;20030;-70
2021/03/29 02:05:22;;;;;;;7.93;3.10;;;;;;;7.70;41.78;95198.25;5091272;28;20031;-69
2021/03/29 02:07:50;;;;;;;14.85;3.17;;;;;;;7.75;41.42;95194.78;5091455;28;20437;-69
2021/03/29 02:10:28;;;;;;;8.98;2.13;;;;;;;7.79;41.35;95198.53;5092272;28;20082;-69
2021/03/29 02:12:54;;;;;;;6.88;2.80;;;;;;;7.81;41.00;95207.81;5087860;28;20455;-70
2021/03/29 02:15:25;;;;;;;6.38;2.45;;;;;;;7.80;41.24;95200.91;5090720;28;20143;-70
2021/03/29 02:17:54;;;;;;;10.27;2.63;;;;;;;7.82;41.24;95206.75;5087079;28;20024;-70
2021/03/29 02:20:24;;;;;;;10.20;3.00;;;;;;;7.85;41.59;95205.44;5091029;28;20480;-71
2021/03/29 02:22:51;;;;;;;13.00;3.38;;;;;;;7.83;41.16;95192.41;5090965;28;20583;-71
2021/03/29 02:25:18;;;;;;;6.50;2.72;;;;;;;7.79;40.63;95196.66;5089878;28;20474;-71
2021/03/29 02:27:48;;;;;;;5.32;2.53;;;;;;;7.68;40.40;95200.34;5091140;28;20407;-71
2021/03/29 02:30:37;;;;;;;6.35;2.53;;;;;;;7.67;40.98;95205.94;5091215;28;20119;-70
2021/03/29 02:33:09;;;;;;;6.50;2.60;;;;;;;7.69;40.94;95199.28;5091013;28;20044;-70
2021/03/29 02:35:37;;;;;;;4.82;2.42;;;;;;;7.67;40.89;95188.13;5092190;28;20036;-71
2021/03/29 02:38:12;;;;;;;8.88;3.10;;;;;;;7.64;41.38;95193.97;5090972;28;20026;-70
2021/03/29 02:40:38;;;;;;;10.20;3.00;;;;;;;7.64;41.30;95199.28;5090117;28;20024;-70
2021/03/29 02:43:04;;;;;;;10.73;3.00;;;;;;;7.64;41.67;95196.63;5090824;28;20028;-70
2021/03/29 02:45:34;;;;;;;7.22;2.78;;;;;;;7.59;41.29;95194.78;5091734;28;20024;-71
2021/03/29 02:48:04;;;;;;;15.43;3.75;;;;;;;7.64;41.15;95193.97;5092077;28;20024;-70
2021/03/29 02:50:31;;;;;;;8.90;3.42;;;;;;;7.59;41.51;95202.72;5090574;28;20020;-71
2021/03/29 02:52:59;;;;;;;17.63;3.65;;;;;;;7.61;41.75;95194.50;5089347;28;20415;-71
2021/03/29 02:55:27;;;;;;;9.35;4.00;;;;;;;7.61;41.91;95202.44;5090677;28;20031;-70
2021/03/29 02:57:57;;;;;;;12.05;3.30;;;;;;;7.62;42.32;95201.41;5090315;28;20079;-69
2021/03/29 03:00:24;;;;;;;8.93;3.30;;;;;;;7.60;42.49;95198.22;5090518;28;20030;-70
2021/03/29 03:02:53;;;;;;;10.48;4.18;;;;;;;7.58;42.96;95198.47;5090790;28;20028;-70
2021/03/29 03:05:20;;;;;;;9.38;3.25;;;;;;;7.53;42.98;95208.25;5091715;28;20039;-70
2021/03/29 03:07:46;;;;;;;18.30;4.05;;;;;;;7.49;43.32;95217.81;5090105;28;20039;-69
2021/03/29 03:10:16;;;;;;;7.80;3.42;;;;;;;7.48;43.06;95209.06;5090137;28;20035;-69
2021/03/29 03:12:43;;;;;;;12.07;5.15;;;;;;;7.48;43.50;95211.69;5089826;28;20555;-69
2021/03/29 03:15:13;;;;;;;11.85;5.07;;;;;;;7.40;43.93;95215.66;5089980;28;20023;-70
2021/03/29 03:17:39;;;;;;;13.00;5.43;;;;;;;7.41;43.94;95219.13;5091302;28;20028;-69
2021/03/29 03:20:09;;;;;;;18.00;7.43;;;;;;;7.42;43.75;95218.03;5091237;28;20042;-69
2021/03/29 03:22:35;;;;;;;15.60;6.32;;;;;;;7.44;43.56;95221.25;5090084;28;20020;-70
2021/03/29 03:25:01;;;;;;;23.90;10.50;;;;;;;7.47;43.23;95214.59;5089835;28;20081;-69
2021/03/29 03:27:26;;;;;;;18.95;8.32;;;;;;;7.45;43.27;95214.88;5089817;28;20497;-70
2021/03/29 03:29:52;;;;;;;25.90;7.20;;;;;;;7.42;43.10;95218.84;5089529;28;20028;-69
2021/03/29 03:32:18;;;;;;;19.17;6.55;;;;;;;7.48;43.56;95218.88;5090738;28;20463;-69
2021/03/29 03:34:44;;;;;;;15.57;5.43;;;;;;;7.52;43.28;95222.59;5089770;28;20032;-69
2021/03/29 03:37:17;;;;;;;14.95;4.18;;;;;;;7.52;43.13;95218.09;5089828;28;20076;-68
2021/03/29 03:39:44;;;;;;;10.23;3.70;;;;;;;7.54;43.14;95218.63;5089651;28;20051;-69
2021/03/29 03:42:12;;;;;;;6.22;3.63;;;;;;;7.52;43.22;95222.59;5089868;28;20036;-69
2021/03/29 03:44:38;;;;;;;8.93;4.28;;;;;;;7.52;43.53;95220.75;5089800;28;20023;-69
2021/03/29 03:47:05;;;;;;;10.40;4.57;;;;;;;7.58;43.59;95221.56;5090418;28;20036;-69
2021/03/29 03:49:32;;;;;;;12.05;4.47;;;;;;;7.62;44.28;95228.72;5090847;28;20459;-70
2021/03/29 03:51:59;;;;;;;18.75;4.38;;;;;;;7.64;44.90;95217.88;5088944;28;20035;-70
2021/03/29 03:54:25;;;;;;;10.20;3.90;;;;;;;7.66;44.97;95218.41;5089328;28;20455;-70
2021/03/29 03:56:51;;;;;;;10.73;4.45;;;;;;;7.66;45.63;95222.91;5089282;28;20032;-70
2021/03/29 03:59:16;;;;;;;10.05;4.65;;;;;;;7.65;45.30;95216.78;5090550;28;20615;-70
2021/03/29 04:02:06;;;;;;;10.68;4.65;;;;;;;7.69;45.45;95223.16;5089656;28;20112;-70
2021/03/29 04:04:32;;;;;;;16.42;6.05;;;;;;;7.70;45.34;95218.69;5087536;28;20067;-69
2021/03/29 04:06:58;;;;;;;15.63;6.30;;;;;;;7.70;45.34;95224.78;5089110;28;20095;-69
2021/03/29 04:09:34;;;;;;;13.75;6.75;;;;;;;7.72;45.69;95216.56;5087686;28;20136;-70
2021/03/29 04:12:06;;;;;;;15.43;7.57;;;;;;;7.69;45.80;95207.25;5090433;28;20020;-69
2021/03/29 04:14:31;;;;;;;13.63;5.93;;;;;;;7.71;45.58;95193.72;5072450;28;20040;-70
2021/03/29 04:16:57;;;;;;;20.45;7.57;;;;;;;7.65;44.99;95195.56;5088922;28;20026;-69
2021/03/29 04:19:22;;;;;;;20.70;9.45;;;;;;;7.69;45.09;95191.31;5088107;28;20389;-69
2021/03/29 04:21:47;;;;;;;25.63;11.10;;;;;;;7.64;45.13;95188.69;5089072;28;20158;-69
2021/03/29 04:24:13;;;;;;;29.27;10.73;;;;;;;7.62;45.35;95204.06;5088563;28;20147;-70
2021/03/29 04:26:41;;;;;;;26.50;12.02;;;;;;;7.63;46.21;95203.81;5088642;28;20016;-69
2021/03/29 04:29:07;;;;;;;20.63;11.05;;;;;;;7.63;46.00;95203.81;5088700;28;20134;-70
2021/03/29 04:31:33;;;;;;;22.55;8.43;;;;;;;7.65;45.65;95200.88;5087079;28;20103;-70
2021/03/29 04:33:58;;;;;;;20.08;8.02;;;;;;;7.62;45.40;95201.41;5088733;28;20036;-70
2021/03/29 04:36:23;;;;;;;23.70;10.02;;;;;;;7.58;45.43;95206.44;5088257;28;20403;-69
2021/03/29 04:38:49;;;;;;;27.80;10.40;;;;;;;7.59;46.24;95196.59;5088602;28;20493;-70
2021/03/29 04:41:14;;;;;;;27.35;10.68;;;;;;;7.53;46.37;95190.50;5090146;28;20028;-70
2021/03/29 04:43:40;;;;;;;25.50;9.95;;;;;;;7.50;45.46;95195.53;5089848;28;20059;-69
2021/03/29 04:46:06;;;;;;;22.25;9.43;;;;;;;7.49;45.94;95202.69;5088444;28;20028;-69
2021/03/29 04:48:31;;;;;;;16.30;5.95;;;;;;;7.46;44.37;95205.06;5087986;28;20411;-69
2021/03/29 04:50:57;;;;;;;16.13;5.28;;;;;;;7.43;44.00;95209.84;5089757;28;20403;-70
2021/03/29 04:53:22;;;;;;;13.13;6.47;;;;;;;7.42;44.38;95223.34;5088125;28;20028;-69
2021/03/29 04:55:47;;;;;;;10.23;5.10;;;;;;;7.43;43.78;95235.56;5088319;28;20023;-70
2021/03/29 04:58:13;;;;;;;11.57;5.45;;;;;;;7.46;43.83;95236.91;5089684;28;20232;-70
2021/03/29 05:00:38;;;;;;;13.23;5.28;;;;;;;7.51;43.69;95228.94;5089488;28;20090;-70
2021/03/29 05:03:04;;;;;;;13.02;5.10;;;;;;;7.50;44.57;95236.13;5088465;28;20028;-70
2021/03/29 05:05:29;;;;;;;15.32;5.13;;;;;;;7.51;45.01;95237.72;5088017;28;20023;-70
2021/03/29 05:07:55;;;;;;;9.35;3.83;;;;;;;7.51;44.70;95240.38;5088110;28;20031;-70
2021/03/29 05:10:20;;;;;;;25.17;5.00;;;;;;;7.52;43.65;95233.22;5088092;28;20036;-70
2021/03/29 05:12:46;;;;;;;13.13;5.60;;;;;;;7.55;43.82;95230.03;5087966;28;20150;-70
2021/03/29 05:15:12;;;;;;;13.23;6.53;;;;;;;7.65;43.90;95232.72;5088343;28;20028;-70
2021/03/29 05:17:37;;;;;;;20.92;7.05;;;;;;;7.73;44.55;95226.91;5087929;28;20042;-71
2021/03/29 05:20:05;;;;;;;14.25;5.68;;;;;;;7.84;44.50;95238.38;5087971;28;20472;-69
2021/03/29 05:22:30;;;;;;;20.02;5.95;;;;;;;7.93;43.54;95236.00;5089471;28;20035;-70
2021/03/29 05:24:56;;;;;;;25.13;13.15;;;;;;;8.03;43.81;95238.66;5088234;28;20028;-70
2021/03/29 05:27:21;;;;;;;19.23;7.35;;;;;;;8.09;44.07;95236.81;5088239;28;20028;-70
2021/03/29 05:29:47;;;;;;;11.80;4.40;;;;;;;8.22;44.08;95236.28;5089224;28;20101;-69
2021/03/29 05:32:21;;;;;;;11.27;3.38;;;;;;;8.34;43.87;95238.69;5087690;28;20506;-70
2021/03/29 05:34:49;;;;;;;31.92;4.85;;;;;;;8.40;42.78;95238.44;5087790;28;20395;-70
2021/03/29 05:37:17;;;;;;;13.93;5.13;;;;;;;8.47;42.77;95232.09;5087724;28;20192;-69
2021/03/29 05:39:45;;;;;;;17.25;3.85;;;;;;;8.55;42.58;95232.38;5087357;28;20035;-76
2021/03/29 05:42:10;;;;;;;11.93;4.85;;;;;;;8.66;41.85;95235.81;5087882;28;20024;-76
2021/03/29 05:44:37;;;;;;;11.10;3.83;;;;;;;8.74;41.10;95232.63;5087697;28;20123;-76
2021/03/29 05:47:03;;;;;;;8.57;3.40;;;;;;;8.83;39.60;95240.84;5087723;28;20028;-76
2021/03/29 05:49:30;;;;;;;22.95;6.50;;;;;;;8.87;41.88;95241.91;5088152;28;20120;-75
2021/03/29 05:51:56;;;;;;;23.02;5.22;;;;;;;8.88;42.67;95240.84;5087425;28;20028;-75
2021/03/29 05:54:21;;;;;;;15.48;5.40;;;;;;;8.86;42.91;95258.16;5088377;28;20024;-77
2021/03/29 05:56:49;;;;;;;35.25;5.13;;;;;;;8.87;42.01;95252.53;5087803;28;20112;-75
2021/03/29 05:59:24;;;;;;;23.92;5.95;;;;;;;8.88;42.48;95254.16;5088127;28;20022;-73
2021/03/29 06:01:55;;;;;;;27.98;5.88;;;;;;;8.93;42.78;95256.78;5089807;28;20024;-74
2021/03/29 06:04:45;;;;;;;22.83;5.85;;;;;;;8.89;41.17;95254.94;5091176;28;20056;-74
2021/03/29 06:07:16;;;;;;;23.75;7.05;;;;;;;8.82;41.40;95249.91;5091025;28;20085;-74
2021/03/29 06:09:42;;;;;;;31.17;6.25;;;;;;;8.70;41.73;95257.34;5091734;28;20024;-74
2021/03/29 06:12:09;;;;;;;13.13;4.78;;;;;;;8.54;41.28;95251.22;5090859;28;20366;-74
2021/03/29 06:14:35;;;;;;;14.32;5.68;;;;;;;8.49;42.31;95245.91;5091377;28;20406;-74
2021/03/29 06:17:09;;;;;;;15.45;5.13;;;;;;;8.45;42.62;95250.97;5090811;28;20081;-71
2021/03/29 06:19:52;;;;;;;21.90;5.72;;;;;;;8.44;42.18;95255.47;5091102;28;20111;-71
2021/03/29 06:22:24;;;;;;;11.00;4.60;;;;;;;8.48;41.44;95244.31;5090188;28;20023;-71
2021/03/29 06:25:02;;;;;;;12.35;5.57;;;;;;;8.40;42.06;95250.94;5091297;28;20453;-71
2021/03/29 06:27:54;;;;;;;18.77;6.38;;;;;;;8.33;41.88;95248.53;5092320;28;20031;-71
2021/03/29 06:30:26;;;;;;;18.00;4.03;;;;;;;8.34;40.68;95246.66;5091261;28;20024;-71
2021/03/29 06:32:57;;;;;;;7.22;3.63;;;;;;;8.36;40.29;95241.88;5092076;28;20079;-71
2021/03/29 06:35:30;;;;;;;7.05;3.00;;;;;;;8.43;39.38;95243.25;5090941;28;20032;-71
2021/03/29 06:38:05;;;;;;;12.27;4.97;;;;;;;8.42;39.97;95251.50;5087033;28;20031;-70
2021/03/29 06:40:31;;;;;;;14.73;5.15;;;;;;;8.46;39.92;95249.09;5090122;28;20028;-70
2021/03/29 06:42:56;;;;;;;13.02;5.88;;;;;;;8.50;40.11;95248.31;5091850;28;20394;-70
2021/03/29 06:45:23;;;;;;;23.17;5.22;;;;;;;8.54;40.41;95246.72;5091948;28;20103;-71
2021/03/29 06:47:51;;;;;;;14.95;5.30;;;;;;;8.45;40.69;95243.00;5090479;28;20391;-71
2021/03/29 06:50:27;;;;;;;14.20;5.47;;;;;;;8.47;41.21;95256.00;5091912;28;20028;-71
2021/03/29 06:52:53;;;;;;;13.38;4.75;;;;;;;8.42;41.37;95254.16;5091676;28;20024;-72
2021/03/29 06:55:24;;;;;;;17.48;4.70;;;;;;;8.52;40.31;95251.50;5090498;28;20111;-70
2021/03/29 06:58:06;;;;;;;15.05;4.75;;;;;;;8.58;40.63;95254.94;5090244;28;20115;-70
2021/03/29 07:00:34;;;;;;;12.63;4.55;;;;;;;8.60;39.94;95248.31;5090256;28;20406;-71
2021/03/29 07:03:04;;;;;;;10.40;3.03;;;;;;;8.70;38.40;95262.66;5090189;28;20028;-72
2021/03/29 07:05:30;;;;;;;11.68;3.38;;;;;;;8.68;37.13;95264.78;5090274;28;20040;-72
2021/03/29 07:07:57;;;;;;;11.70;2.40;;;;;;;8.64;36.24;95248.56;5090980;28;20031;-73
2021/03/29 07:10:23;;;;;;;9.60;2.95;;;;;;;8.70;37.11;95262.66;5091429;28;20035;-71
2021/03/29 07:12:50;;;;;;;10.23;3.00;;;;;;;8.63;36.47;95262.94;5089995;28;20028;-71
2021/03/29 07:15:16;;;;;;;8.85;3.03;;;;;;;8.58;36.95;95274.34;5090005;28;20463;-72
2021/03/29 07:17:43;;;;;;;6.20;2.70;;;;;;;8.59;35.80;95267.19;5090061;28;20039;-73
2021/03/29 07:20:14;;;;;;;15.65;3.50;;;;;;;8.62;36.83;95271.97;5089192;28;20395;-72
2021/03/29 07:22:41;;;;;;;10.90;3.17;;;;;;;8.75;37.34;95273.28;5088864;28;20058;-71
2021/03/29 07:25:10;;;;;;;7.05;3.20;;;;;;;8.70;36.95;95274.09;5090230;28;20097;-71
2021/03/29 07:27:45;;;;;;;7.00;2.95;;;;;;;8.55;37.02;95271.44;5088834;28;20042;-71
2021/03/29 07:30:15;;;;;;;5.30;2.63;;;;;;;8.57;37.10;95266.66;5088883;28;20465;-71
2021/03/29 07:32:41;;;;;;;14.27;2.90;;;;;;;8.48;37.79;95286.84;5088779;28;20047;-71
2021/03/29 07:35:08;;;;;;;8.52;3.63;;;;;;;8.61;37.58;95286.34;5088837;28;20466;-74
2021/03/29 07:37:36;;;;;;;6.55;2.50;;;;;;;8.55;37.54;95266.91;5088981;28;20020;-74
2021/03/29 07:40:19;;;;;;;10.73;3.50;;;;;;;8.54;37.37;95269.84;5088937;28;20376;-74
2021/03/29 07:42:46;;;;;;;4.93;2.58;;;;;;;8.55;38.11;95269.56;5088117;28;20031;-73
2021/03/29 07:45:18;;;;;;;5.63;2.83;;;;;;;8.63;38.51;95268.25;5088875;28;20050;-74
2021/03/29 07:47:50;;;;;;;8.07;2.97;;;;;;;8.70;36.42;95275.97;5088240;28;20020;-71
2021/03/29 07:50:25;;;;;;;9.57;2.80;;;;;;;8.77;37.46;95264.00;5088866;28;20023;-73
2021/03/29 07:52:53;;;;;;;8.77;2.92;;;;;;;8.78;37.22;95270.09;5088862;28;20032;-73
2021/03/29 07:55:20;;;;;;;10.23;3.80;;;;;;;8.86;37.08;95263.47;5088377;28;20020;-73
2021/03/29 07:57:49;;;;;;;10.77;3.78;;;;;;;8.92;36.89;95270.38;5090557;28;20039;-71
2021/03/29 08:00:23;;;;;;;8.07;2.65;;;;;;;8.89;37.06;95255.72;5089248;28;20036;-72
2021/03/29 08:02:53;;;;;;;7.07;2.60;;;;;;;9.03;37.06;95266.63;5089226;28;20046;-71
2021/03/29 08:05:44;;;;;;;7.55;2.60;;;;;;;9.10;34.93;95264.50;5089359;28;20486;-72
2021/03/29 08:11:06;;;;;;;8.10;2.65;;;;;;;9.14;36.45;95254.09;5090750;28;20028;-71
2021/03/29 08:13:58;;;;;;;10.02;3.05;;;;;;;9.15;36.88;95259.16;5089679;28;20558;-66
2021/03/29 08:16:28;;;;;;;10.97;3.50;;;;;;;9.19;37.20;95260.19;5087216;28;20024;-67
2021/03/29 08:19:14;;;;;;;7.55;2.25;;;;;;;9.16;37.54;95267.91;5088703;28;20427;-66
2021/03/29 08:22:14;;;;;;;22.40;2.60;;;;;;;9.26;37.09;95264.44;5088203;28;20032;-67
2021/03/29 08:24:50;;;;;;;11.27;3.70;;;;;;;9.28;37.42;95267.63;5088821;28;20142;-66
2021/03/29 08:27:17;;;;;;;11.18;2.95;;;;;;;9.23;36.84;95255.16;5088355;28;20023;-67
2021/03/29 08:29:44;;;;;;;10.80;3.70;;;;;;;9.32;37.37;95258.84;5088196;28;20475;-66
2021/03/29 08:32:40;;;;;;;7.60;2.97;;;;;;;9.39;37.25;95247.91;5086677;28;20028;-66
2021/03/29 08:35:21;;;;;;;6.88;2.85;;;;;;;9.44;37.95;95256.69;5088008;28;20478;-67
2021/03/29 08:37:52;;;;;;;9.05;2.85;;;;;;;9.38;36.75;95257.78;5087955;28;20494;-68
2021/03/29 08:40:20;;;;;;;8.40;3.00;;;;;;;9.46;36.38;95267.03;5089342;28;20089;-68
2021/03/29 08:42:51;;;;;;;12.60;3.35;;;;;;;9.47;36.75;95254.56;5087635;28;20023;-67
2021/03/29 08:45:20;;;;;;;11.20;3.17;;;;;;;9.54;35.96;95255.06;5089587;28;20114;-66
2021/03/29 08:47:48;;;;;;;16.80;3.47;;;;;;;9.62;35.91;95255.28;5086599;28;20391;-67
2021/03/29 08:50:17;;;;;;;10.63;2.90;;;;;;;9.62;36.03;95249.94;5088017;28;20027;-67
2021/03/29 08:53:01;;;;;;;7.05;2.97;;;;;;;9.71;36.61;95244.88;5087526;28;20028;-67
2021/03/29 08:55:30;;;;;;;11.45;2.85;;;;;;;9.82;36.22;95249.06;5088355;28;20499;-67
2021/03/29 08:57:57;;;;;;;8.60;2.72;;;;;;;9.80;35.00;95250.41;5087506;28;20062;-66
2021/03/29 09:00:25;;;;;;;7.82;2.75;;;;;;;9.75;35.75;95242.44;5089035;28;20035;-66
2021/03/29 09:02:51;;;;;;;11.00;3.35;;;;;;;9.81;36.01;95242.16;5089052;28;20540;-66
2021/03/29 09:05:18;;;;;;;8.30;3.30;;;;;;;9.95;36.62;95238.88;5087370;28;20035;-67
2021/03/29 09:07:48;;;;;;;8.57;3.25;;;;;;;10.06;36.13;95250.31;5087506;28;20028;-66
2021/03/29 09:10:19;;;;;;;11.82;2.75;;;;;;;10.03;35.15;95247.13;5088987;28;20038;-67
2021/03/29 09:12:51;;;;;;;31.17;3.33;;;;;;;9.93;35.66;95233.03;5087637;28;20024;-67
2021/03/29 09:15:18;;;;;;;17.60;3.20;;;;;;;9.92;35.48;95242.91;5088835;28;20080;-66
2021/03/29 09:17:44;;;;;;;9.30;2.47;;;;;;;9.96;35.36;95229.84;5088870;28;20028;-67
2021/03/29 09:20:24;;;;;;;6.78;2.40;;;;;;;9.73;35.54;95228.59;5088426;28;20035;-68
2021/03/29 09:22:49;;;;;;;11.38;3.05;;;;;;;9.76;36.08;95247.50;5087731;28;20084;-68
2021/03/29 09:25:36;;;;;;;12.40;2.65;;;;;;;9.73;36.07;95232.09;5087154;28;20034;-67
2021/03/29 09:30:55;;;;;;;6.85;2.33;;;;;;;9.81;35.55;95242.16;5087806;28;20457;-67
2021/03/29 09:33:22;;;;;;;12.23;2.47;;;;;;;9.86;35.92;95230.69;5087358;28;20105;-68
2021/03/29 09:35:48;;;;;;;12.65;2.65;;;;;;;9.99;35.79;95215.97;5090141;28;20084;-68
2021/03/29 09:38:15;;;;;;;5.85;1.88;;;;;;;10.14;35.47;95223.88;5091777;28;20067;-67
2021/03/29 09:40:40;;;;;;;12.95;2.55;;;;;;;10.33;35.48;95223.25;5091327;28;20016;-67
2021/03/29 09:43:06;;;;;;;10.60;3.10;;;;;;;10.44;34.65;95220.22;5092503;28;20380;-68
2021/03/29 09:45:34;;;;;;;13.20;2.40;;;;;;;10.48;34.38;95203.66;5091591;28;20032;-67
2021/03/29 09:48:07;;;;;;;4.70;2.33;;;;;;;10.63;34.66;95208.88;5091485;28;20173;-68
2021/03/29 09:50:34;;;;;;;7.00;2.38;;;;;;;10.77;33.55;95211.69;5092505;28;20027;-68
2021/03/29 09:53:14;;;;;;;11.52;2.75;;;;;;;10.64;33.76;95213.94;5090827;28;20035;-67
2021/03/29 09:55:42;;;;;;;4.68;2.20;;;;;;;10.47;34.06;95208.19;5091329;28;20434;-68
2021/03/29 09:58:30;;;;;;;5.07;2.20;;;;;;;10.51;33.68;95213.78;5091717;28;20231;-67
2021/03/29 10:01:00;;;;;;;4.35;1.83;;;;;;;10.49;34.05;95191.94;5091374;28;20055;-67
2021/03/29 10:03:26;;;;;;;3.95;2.05;;;;;;;10.62;34.07;95209.94;5090453;28;20107;-67
2021/03/29 10:05:53;;;;;;;14.32;2.38;;;;;;;10.58;33.01;95198.25;5091348;28;20056;-68
2021/03/29 10:08:33;;;;;;;3.90;1.65;;;;;;;10.67;32.80;95187.78;5091459;28;20104;-70
2021/03/29 10:10:59;;;;;;;9.73;2.55;;;;;;;10.76;31.34;95199.41;5091157;28;20027;-68
2021/03/29 10:13:32;;;;;;;6.90;1.80;;;;;;;10.73;33.10;95216.00;5091919;28;20547;-68
2021/03/29 10:15:58;;;;;;;7.13;2.30;;;;;;;10.73;32.32;95200.00;5090866;28;20020;-68
2021/03/29 10:18:30;;;;;;;3.95;1.80;;;;;;;10.74;32.51;95196.25;5090914;28;20028;-67
2021/03/29 10:21:03;;;;;;;13.80;2.40;;;;;;;10.73;33.45;95205.34;5090874;28;20054;-68
2021/03/29 10:23:30;;;;;;;9.50;1.95;;;;;;;10.84;31.75;95190.81;5092548;28;20047;-68
2021/03/29 10:26:20;;;;;;;13.23;2.70;;;;;;;10.91;32.57;95188.63;5090731;28;20058;-67
2021/03/29 10:28:57;;;;;;;4.57;1.92;;;;;;;10.88;32.15;95170.50;5090564;28;20029;-67
2021/03/29 10:31:23;;;;;;;6.60;2.03;;;;;;;10.79;33.21;95190.88;5089525;28;20050;-68
2021/03/29 10:33:48;;;;;;;4.10;2.08;;;;;;;10.88;32.54;95196.38;5090548;28;20056;-67
2021/03/29 10:36:18;;;;;;;5.72;2.50;;;;;;;10.88;33.02;95173.16;5091838;28;20106;-68
2021/03/29 10:38:44;;;;;;;9.38;1.95;;;;;;;10.98;33.19;95193.63;5090436;28;20035;-67
2021/03/29 10:41:10;;;;;;;10.57;1.92;;;;;;;11.06;31.72;95178.88;5091840;28;20024;-67
2021/03/29 10:43:35;;;;;;;5.28;2.72;;;;;;;11.06;31.49;95171.66;5090009;28;20048;-67
2021/03/29 10:46:01;;;;;;;9.27;2.05;;;;;;;11.13;31.81;95179.31;5089079;28;20020;-68
2021/03/29 10:48:26;;;;;;;7.55;2.00;;;;;;;11.12;31.57;95180.41;5091365;28;20030;-67
2021/03/29 10:50:52;;;;;;;7.07;2.08;;;;;;;11.03;31.40;95162.34;5091276;28;20035;-67
2021/03/29 10:53:18;;;;;;;10.90;2.20;;;;;;;10.96;33.02;95164.53;5091547;28;20020;-67
2021/03/29 10:55:43;;;;;;;8.68;2.20;;;;;;;11.15;32.81;95167.25;5089970;28;20038;-68
2021/03/29 10:58:08;;;;;;;5.15;1.90;;;;;;;11.20;32.53;95169.09;5090331;28;20024;-67
2021/03/29 11:00:34;;;;;;;4.75;1.92;;;;;;;11.27;32.62;95160.75;5091456;28;20016;-68
2021/03/29 11:02:59;;;;;;;5.05;2.25;;;;;;;11.37;31.99;95155.28;5091588;28;20037;-66
2021/03/29 11:05:25;;;;;;;6.78;1.95;;;;;;;11.43;31.78;95149.59;5091614;28;20024;-66
2021/03/29 11:07:50;;;;;;;4.43;1.83;;;;;;;11.49;31.39;95131.63;5090099;28;20089;-67
2021/03/29 11:10:16;;;;;;;6.80;2.08;;;;;;;11.56;31.11;95149.97;5091248;28;20031;-66
2021/03/29 11:12:41;;;;;;;6.40;2.10;;;;;;;11.51;31.51;95126.00;5091082;28;20407;-66
2021/03/29 11:15:07;;;;;;;5.43;2.00;;;;;;;11.40;31.46;95131.50;5091346;28;20032;-67
2021/03/29 11:17:35;;;;;;;11.48;2.22;;;;;;;11.44;32.09;95131.72;5089865;28;20084;-67
2021/03/29 11:20:00;;;;;;;9.27;2.22;;;;;;;11.56;31.19;95139.28;5090829;28;20073;-66
2021/03/29 11:22:26;;;;;;;7.10;2.28;;;;;;;11.56;31.17;95132.09;5091557;28;20035;-67
2021/03/29 11:24:51;;;;;;;7.45;2.47;;;;;;;11.70;32.21;95115.34;5091538;28;20032;-66
2021/03/29 11:27:17;;;;;;;3.50;1.80;;;;;;;11.90;30.95;95100.91;5091017;28;20066;-67
2021/03/29 11:29:42;;;;;;;10.95;2.25;;;;;;;12.00;30.19;95101.53;5090355;28;20133;-66
2021/03/29 11:32:07;;;;;;;20.13;3.28;;;;;;;12.10;31.44;95099.81;5089427;28;20035;-66
2021/03/29 11:34:33;;;;;;;7.25;2.13;;;;;;;11.98;30.53;95090.34;5090714;28;20028;-66
2021/03/29 11:36:59;;;;;;;5.85;1.90;;;;;;;12.04;31.28;95093.75;5089476;28;20464;-67
2021/03/29 11:39:24;;;;;;;5.65;1.88;;;;;;;12.11;31.18;95088.84;5090479;28;20551;-67
2021/03/29 11:41:50;;;;;;;8.15;2.05;;;;;;;12.24;30.03;95093.41;5089042;28;20466;-66
2021/03/29 11:44:15;;;;;;;19.45;2.65;;;;;;;12.11;29.14;95083.50;5090223;28;20042;-66
2021/03/29 11:46:40;;;;;;;6.45;1.90;;;;;;;12.07;30.33;95082.50;5090391;28;20507;-66
2021/03/29 11:49:06;;;;;;;6.93;1.92;;;;;;;11.93;30.32;95070.97;5090541;28;20031;-67
2021/03/29 11:51:32;;;;;;;6.25;1.80;;;;;;;12.06;30.73;95070.19;5087787;28;20050;-67